Accueil
METAR-TAF:

METAR-TAF

Aéroports :

Ajaccio, France

Aéroport d'Ajaccio-Napoléon-Bonaparte

latitude: 41-55N, longitude: 008-48E, altitude: 6 m

Observation

Le bulletin a été fait il y a 17 minutes, à 16:30 UTC
Vent 8 kt de sud/sud-ouest
Température 27°C
Humidité 66%
Pression 1016 hPa
Visibilité 10 km ou plus
pas de nuages en-dessous de 1500 mètres et pas de cumulonimbus.

METAR: LFKJ 221630Z AUTO 21008KT CAVOK 27/20 Q1016 NOSIG

Heure: 18:47 (16:47 UTC)

Prévision

Le bulletin a été fait il y a 2 heures et 47 minutes, à 14:00 UTC
Prévision valable du 22 à 15 UTC au 23 à 15 UTC
Vent 10 kt de sud-ouest
Visibilité 10 km ou plus
Quelques nuages à une hauteur de 1700 ft
Evoluant progressivement
du 22 à 18 UTC au 22 à 20 UTC
Vent 5 kt de nord-est
Evoluant progressivement
du 23 à 06 UTC au 23 à 09 UTC
Vent 10 kt de sud-ouest

TAF: LFKJ 221400Z 2215/2315 22010KT 9999 FEW017 BECMG 2218/2220 04005KT BECMG 2306/2309 22010KT

Observations et prévisions météorologiques de plus de 4000 aéroports (messages METAR et TAF).

Les stations disponibles sont représentées par des disques jaunes et rouges sur la carte.

Passer la souris dessus pour voir le nom de la station.

Cliquer dessus pour voir les observations et prévisions météorologiques.

Pour changer de carte: cliquez sur les boutons verts avec une croix noire pour zoomer, sur le bouton vert avec un tiret pour effectuer un zoom arrière, ou sur les flèches vertes pour les cartes adjacentes.


METAR-TAF: